sensor_id;sensor_type;location;lat;lon;timestamp;P1;durP1;ratioP1;P2;durP2;ratioP2
60851;SDS011;48553;50.766;2.900;2023-07-08T00:01:27;8.02;;;4.70;;
60851;SDS011;48553;50.766;2.900;2023-07-08T00:04:27;9.07;;;4.70;;
60851;SDS011;48553;50.766;2.900;2023-07-08T00:07:28;10.35;;;4.75;;
60851;SDS011;48553;50.766;2.900;2023-07-08T00:10:29;7.53;;;4.45;;
60851;SDS011;48553;50.766;2.900;2023-07-08T00:13:29;8.10;;;4.57;;
60851;SDS011;48553;50.766;2.900;2023-07-08T00:16:30;10.07;;;4.57;;
60851;SDS011;48553;50.766;2.900;2023-07-08T00:19:30;7.97;;;4.32;;
60851;SDS011;48553;50.766;2.900;2023-07-08T00:22:32;9.48;;;4.70;;
60851;SDS011;48553;50.766;2.900;2023-07-08T00:25:36;8.88;;;4.80;;
60851;SDS011;48553;50.766;2.900;2023-07-08T00:28:36;8.60;;;4.70;;
60851;SDS011;48553;50.766;2.900;2023-07-08T00:31:37;10.30;;;5.15;;
60851;SDS011;48553;50.766;2.900;2023-07-08T00:34:37;8.95;;;4.50;;
60851;SDS011;48553;50.766;2.900;2023-07-08T00:37:38;7.80;;;4.30;;
60851;SDS011;48553;50.766;2.900;2023-07-08T00:40:39;10.82;;;4.70;;
60851;SDS011;48553;50.766;2.900;2023-07-08T00:43:53;8.32;;;4.82;;
60851;SDS011;48553;50.766;2.900;2023-07-08T00:47:07;8.77;;;4.85;;
60851;SDS011;48553;50.766;2.900;2023-07-08T00:53:27;8.70;;;4.32;;
60851;SDS011;48553;50.766;2.900;2023-07-08T00:56:32;9.25;;;4.85;;
60851;SDS011;48553;50.766;2.900;2023-07-08T00:59:47;9.32;;;4.75;;
60851;SDS011;48553;50.766;2.900;2023-07-08T01:02:54;7.72;;;4.43;;
60851;SDS011;48553;50.766;2.900;2023-07-08T01:05:56;8.75;;;4.75;;
60851;SDS011;48553;50.766;2.900;2023-07-08T01:09:00;9.38;;;5.03;;
60851;SDS011;48553;50.766;2.900;2023-07-08T01:12:06;9.48;;;5.28;;
60851;SDS011;48553;50.766;2.900;2023-07-08T01:15:10;9.50;;;5.05;;
60851;SDS011;48553;50.766;2.900;2023-07-08T01:18:13;8.23;;;4.38;;
60851;SDS011;48553;50.766;2.900;2023-07-08T01:24:35;7.72;;;4.53;;
60851;SDS011;48553;50.766;2.900;2023-07-08T01:27:39;9.82;;;4.90;;
60851;SDS011;48553;50.766;2.900;2023-07-08T01:33:43;9.73;;;5.07;;
60851;SDS011;48553;50.766;2.900;2023-07-08T01:36:47;8.70;;;4.88;;
60851;SDS011;48553;50.766;2.900;2023-07-08T01:39:51;8.02;;;4.68;;
60851;SDS011;48553;50.766;2.900;2023-07-08T01:42:52;8.70;;;4.63;;
60851;SDS011;48553;50.766;2.900;2023-07-08T01:45:53;11.63;;;5.10;;
60851;SDS011;48553;50.766;2.900;2023-07-08T01:48:59;11.30;;;5.28;;
60851;SDS011;48553;50.766;2.900;2023-07-08T01:52:01;7.63;;;4.75;;
60851;SDS011;48553;50.766;2.900;2023-07-08T01:55:02;9.07;;;4.97;;
60851;SDS011;48553;50.766;2.900;2023-07-08T01:58:03;9.38;;;5.10;;
60851;SDS011;48553;50.766;2.900;2023-07-08T02:01:04;8.38;;;4.90;;
60851;SDS011;48553;50.766;2.900;2023-07-08T02:04:05;10.25;;;5.10;;
60851;SDS011;48553;50.766;2.900;2023-07-08T02:07:06;10.38;;;4.97;;
60851;SDS011;48553;50.766;2.900;2023-07-08T02:10:07;8.38;;;5.05;;
60851;SDS011;48553;50.766;2.900;2023-07-08T02:13:08;8.52;;;4.90;;
60851;SDS011;48553;50.766;2.900;2023-07-08T02:16:08;8.60;;;5.13;;
60851;SDS011;48553;50.766;2.900;2023-07-08T02:19:09;10.38;;;5.25;;
60851;SDS011;48553;50.766;2.900;2023-07-08T02:22:10;9.30;;;4.57;;
60851;SDS011;48553;50.766;2.900;2023-07-08T02:25:10;9.20;;;4.63;;
60851;SDS011;48553;50.766;2.900;2023-07-08T02:28:11;10.02;;;5.40;;
60851;SDS011;48553;50.766;2.900;2023-07-08T02:31:11;7.90;;;4.65;;
60851;SDS011;48553;50.766;2.900;2023-07-08T02:34:13;8.27;;;5.10;;
60851;SDS011;48553;50.766;2.900;2023-07-08T02:37:14;9.93;;;4.88;;
60851;SDS011;48553;50.766;2.900;2023-07-08T02:40:14;7.93;;;4.72;;
60851;SDS011;48553;50.766;2.900;2023-07-08T02:43:15;10.77;;;5.05;;
60851;SDS011;48553;50.766;2.900;2023-07-08T02:46:15;10.82;;;5.28;;
60851;SDS011;48553;50.766;2.900;2023-07-08T02:49:15;10.63;;;5.15;;
60851;SDS011;48553;50.766;2.900;2023-07-08T02:52:16;10.10;;;5.05;;
60851;SDS011;48553;50.766;2.900;2023-07-08T02:55:16;9.60;;;4.93;;
60851;SDS011;48553;50.766;2.900;2023-07-08T02:58:16;10.20;;;5.10;;
60851;SDS011;48553;50.766;2.900;2023-07-08T03:01:17;9.38;;;4.93;;
60851;SDS011;48553;50.766;2.900;2023-07-08T03:04:17;11.57;;;5.70;;
60851;SDS011;48553;50.766;2.900;2023-07-08T03:07:18;10.15;;;5.30;;
60851;SDS011;48553;50.766;2.900;2023-07-08T03:10:19;9.02;;;5.47;;
60851;SDS011;48553;50.766;2.900;2023-07-08T03:13:19;9.02;;;5.22;;
60851;SDS011;48553;50.766;2.900;2023-07-08T03:16:20;10.10;;;5.20;;
60851;SDS011;48553;50.766;2.900;2023-07-08T03:19:20;12.45;;;5.50;;
60851;SDS011;48553;50.766;2.900;2023-07-08T03:22:20;12.82;;;5.72;;
60851;SDS011;48553;50.766;2.900;2023-07-08T03:25:21;11.75;;;5.65;;
60851;SDS011;48553;50.766;2.900;2023-07-08T03:28:21;10.40;;;5.53;;
60851;SDS011;48553;50.766;2.900;2023-07-08T03:31:22;10.10;;;5.38;;
60851;SDS011;48553;50.766;2.900;2023-07-08T03:34:23;10.68;;;5.57;;
60851;SDS011;48553;50.766;2.900;2023-07-08T03:37:23;9.57;;;5.55;;
60851;SDS011;48553;50.766;2.900;2023-07-08T03:40:24;9.60;;;5.32;;
60851;SDS011;48553;50.766;2.900;2023-07-08T03:43:25;11.10;;;5.65;;
60851;SDS011;48553;50.766;2.900;2023-07-08T03:46:25;11.40;;;5.85;;
60851;SDS011;48553;50.766;2.900;2023-07-08T03:49:26;8.90;;;5.50;;
60851;SDS011;48553;50.766;2.900;2023-07-08T03:52:27;9.45;;;5.78;;
60851;SDS011;48553;50.766;2.900;2023-07-08T03:55:27;12.00;;;6.00;;
60851;SDS011;48553;50.766;2.900;2023-07-08T03:58:28;10.95;;;5.75;;
60851;SDS011;48553;50.766;2.900;2023-07-08T04:01:28;9.75;;;5.82;;
60851;SDS011;48553;50.766;2.900;2023-07-08T04:04:29;12.40;;;5.80;;
60851;SDS011;48553;50.766;2.900;2023-07-08T04:07:29;10.95;;;5.60;;
60851;SDS011;48553;50.766;2.900;2023-07-08T04:10:30;10.95;;;5.97;;
60851;SDS011;48553;50.766;2.900;2023-07-08T04:13:31;11.02;;;5.80;;
60851;SDS011;48553;50.766;2.900;2023-07-08T04:16:35;9.43;;;5.55;;
60851;SDS011;48553;50.766;2.900;2023-07-08T04:19:45;11.52;;;5.47;;
60851;SDS011;48553;50.766;2.900;2023-07-08T04:22:46;12.95;;;6.50;;
60851;SDS011;48553;50.766;2.900;2023-07-08T04:25:47;13.82;;;6.03;;
60851;SDS011;48553;50.766;2.900;2023-07-08T04:28:49;10.13;;;6.03;;
60851;SDS011;48553;50.766;2.900;2023-07-08T04:31:50;12.68;;;6.15;;
60851;SDS011;48553;50.766;2.900;2023-07-08T04:34:51;10.40;;;5.90;;
60851;SDS011;48553;50.766;2.900;2023-07-08T04:37:52;10.48;;;6.00;;
60851;SDS011;48553;50.766;2.900;2023-07-08T04:40:54;12.50;;;5.88;;
60851;SDS011;48553;50.766;2.900;2023-07-08T04:43:54;10.15;;;6.10;;
60851;SDS011;48553;50.766;2.900;2023-07-08T04:46:57;13.48;;;6.50;;
60851;SDS011;48553;50.766;2.900;2023-07-08T04:49:58;10.70;;;6.18;;
60851;SDS011;48553;50.766;2.900;2023-07-08T04:52:58;12.23;;;6.68;;
60851;SDS011;48553;50.766;2.900;2023-07-08T04:55:59;11.52;;;6.40;;
60851;SDS011;48553;50.766;2.900;2023-07-08T04:58:59;12.52;;;6.32;;
60851;SDS011;48553;50.766;2.900;2023-07-08T05:02:01;12.30;;;5.85;;
60851;SDS011;48553;50.766;2.900;2023-07-08T05:05:02;9.73;;;5.72;;
60851;SDS011;48553;50.766;2.900;2023-07-08T05:08:02;11.05;;;6.03;;
60851;SDS011;48553;50.766;2.900;2023-07-08T05:11:03;11.40;;;5.75;;
60851;SDS011;48553;50.766;2.900;2023-07-08T05:14:04;10.60;;;5.70;;
60851;SDS011;48553;50.766;2.900;2023-07-08T05:17:05;9.43;;;5.47;;
60851;SDS011;48553;50.766;2.900;2023-07-08T05:20:07;10.43;;;5.53;;
60851;SDS011;48553;50.766;2.900;2023-07-08T05:23:09;9.68;;;5.45;;
60851;SDS011;48553;50.766;2.900;2023-07-08T05:26:10;12.25;;;6.00;;
60851;SDS011;48553;50.766;2.900;2023-07-08T05:29:10;10.35;;;5.80;;
60851;SDS011;48553;50.766;2.900;2023-07-08T05:32:11;11.32;;;5.95;;
60851;SDS011;48553;50.766;2.900;2023-07-08T05:35:11;8.43;;;5.20;;
60851;SDS011;48553;50.766;2.900;2023-07-08T05:38:11;11.13;;;5.57;;
60851;SDS011;48553;50.766;2.900;2023-07-08T05:41:12;10.60;;;5.70;;
60851;SDS011;48553;50.766;2.900;2023-07-08T05:44:12;10.95;;;5.68;;
60851;SDS011;48553;50.766;2.900;2023-07-08T05:47:13;11.30;;;5.60;;
60851;SDS011;48553;50.766;2.900;2023-07-08T05:50:14;8.15;;;5.15;;
60851;SDS011;48553;50.766;2.900;2023-07-08T05:53:17;8.88;;;5.28;;
60851;SDS011;48553;50.766;2.900;2023-07-08T05:56:19;8.88;;;5.55;;
60851;SDS011;48553;50.766;2.900;2023-07-08T05:59:19;10.15;;;5.50;;
60851;SDS011;48553;50.766;2.900;2023-07-08T06:02:19;10.20;;;6.10;;
60851;SDS011;48553;50.766;2.900;2023-07-08T06:05:21;12.65;;;6.00;;
60851;SDS011;48553;50.766;2.900;2023-07-08T06:08:22;12.70;;;6.30;;
60851;SDS011;48553;50.766;2.900;2023-07-08T06:11:22;11.88;;;6.55;;
60851;SDS011;48553;50.766;2.900;2023-07-08T06:14:23;12.32;;;6.50;;
60851;SDS011;48553;50.766;2.900;2023-07-08T06:17:23;14.07;;;6.63;;
60851;SDS011;48553;50.766;2.900;2023-07-08T06:20:24;12.00;;;6.32;;
60851;SDS011;48553;50.766;2.900;2023-07-08T06:23:24;10.10;;;6.22;;
60851;SDS011;48553;50.766;2.900;2023-07-08T06:26:25;10.90;;;6.05;;
60851;SDS011;48553;50.766;2.900;2023-07-08T06:29:26;11.68;;;6.07;;
60851;SDS011;48553;50.766;2.900;2023-07-08T06:32:26;12.48;;;5.93;;
60851;SDS011;48553;50.766;2.900;2023-07-08T06:35:26;10.43;;;5.75;;
60851;SDS011;48553;50.766;2.900;2023-07-08T06:38:27;11.45;;;5.43;;
60851;SDS011;48553;50.766;2.900;2023-07-08T06:41:27;9.50;;;5.55;;
60851;SDS011;48553;50.766;2.900;2023-07-08T06:44:28;11.30;;;5.18;;
60851;SDS011;48553;50.766;2.900;2023-07-08T06:47:28;10.32;;;5.03;;
60851;SDS011;48553;50.766;2.900;2023-07-08T06:50:29;10.27;;;5.10;;
60851;SDS011;48553;50.766;2.900;2023-07-08T06:53:30;10.48;;;5.03;;
60851;SDS011;48553;50.766;2.900;2023-07-08T06:56:30;11.25;;;5.45;;
60851;SDS011;48553;50.766;2.900;2023-07-08T06:59:31;8.60;;;4.88;;
60851;SDS011;48553;50.766;2.900;2023-07-08T07:02:31;10.73;;;4.90;;
60851;SDS011;48553;50.766;2.900;2023-07-08T07:05:33;9.95;;;4.90;;
60851;SDS011;48553;50.766;2.900;2023-07-08T07:08:33;7.88;;;4.78;;
60851;SDS011;48553;50.766;2.900;2023-07-08T07:11:33;9.18;;;5.05;;
60851;SDS011;48553;50.766;2.900;2023-07-08T07:14:34;9.52;;;5.00;;
60851;SDS011;48553;50.766;2.900;2023-07-08T07:17:34;10.35;;;5.50;;
60851;SDS011;48553;50.766;2.900;2023-07-08T07:20:36;10.27;;;4.95;;
60851;SDS011;48553;50.766;2.900;2023-07-08T07:23:37;11.68;;;5.00;;
60851;SDS011;48553;50.766;2.900;2023-07-08T07:26:38;9.43;;;5.10;;
60851;SDS011;48553;50.766;2.900;2023-07-08T07:29:42;10.02;;;5.15;;
60851;SDS011;48553;50.766;2.900;2023-07-08T07:32:45;8.52;;;4.95;;
60851;SDS011;48553;50.766;2.900;2023-07-08T07:35:46;9.25;;;4.57;;
60851;SDS011;48553;50.766;2.900;2023-07-08T07:38:46;9.25;;;4.90;;
60851;SDS011;48553;50.766;2.900;2023-07-08T07:41:46;10.60;;;4.50;;
60851;SDS011;48553;50.766;2.900;2023-07-08T07:44:47;9.65;;;4.68;;
60851;SDS011;48553;50.766;2.900;2023-07-08T07:47:47;8.07;;;4.82;;
60851;SDS011;48553;50.766;2.900;2023-07-08T07:50:48;9.30;;;4.50;;
60851;SDS011;48553;50.766;2.900;2023-07-08T07:53:51;7.97;;;4.45;;
60851;SDS011;48553;50.766;2.900;2023-07-08T07:56:51;9.13;;;4.70;;
60851;SDS011;48553;50.766;2.900;2023-07-08T07:59:52;10.88;;;4.72;;
60851;SDS011;48553;50.766;2.900;2023-07-08T08:02:52;8.45;;;4.65;;
60851;SDS011;48553;50.766;2.900;2023-07-08T08:05:53;10.80;;;4.57;;
60851;SDS011;48553;50.766;2.900;2023-07-08T08:08:53;9.80;;;4.72;;
60851;SDS011;48553;50.766;2.900;2023-07-08T08:11:54;8.60;;;4.60;;
60851;SDS011;48553;50.766;2.900;2023-07-08T08:14:55;7.90;;;4.35;;
60851;SDS011;48553;50.766;2.900;2023-07-08T08:17:55;6.60;;;4.20;;
60851;SDS011;48553;50.766;2.900;2023-07-08T08:20:56;10.07;;;4.45;;
60851;SDS011;48553;50.766;2.900;2023-07-08T08:23:56;9.60;;;4.28;;
60851;SDS011;48553;50.766;2.900;2023-07-08T08:26:58;7.38;;;4.38;;
60851;SDS011;48553;50.766;2.900;2023-07-08T08:29:59;8.88;;;4.30;;
60851;SDS011;48553;50.766;2.900;2023-07-08T08:32:59;7.18;;;4.20;;
60851;SDS011;48553;50.766;2.900;2023-07-08T08:36:00;8.00;;;4.43;;
60851;SDS011;48553;50.766;2.900;2023-07-08T08:39:00;8.77;;;4.40;;
60851;SDS011;48553;50.766;2.900;2023-07-08T08:42:01;7.93;;;4.30;;
60851;SDS011;48553;50.766;2.900;2023-07-08T08:45:02;7.40;;;4.20;;
60851;SDS011;48553;50.766;2.900;2023-07-08T08:48:04;7.78;;;4.13;;
60851;SDS011;48553;50.766;2.900;2023-07-08T08:51:12;8.63;;;4.00;;
60851;SDS011;48553;50.766;2.900;2023-07-08T08:54:14;7.43;;;3.95;;
60851;SDS011;48553;50.766;2.900;2023-07-08T09:07:16;6.55;;;3.90;;
60851;SDS011;48553;50.766;2.900;2023-07-08T09:13:36;10.15;;;4.30;;
60851;SDS011;48553;50.766;2.900;2023-07-08T09:19:58;7.22;;;3.95;;
60851;SDS011;48553;50.766;2.900;2023-07-08T09:26:38;7.38;;;4.30;;
60851;SDS011;48553;50.766;2.900;2023-07-08T09:29:40;7.95;;;4.18;;
60851;SDS011;48553;50.766;2.900;2023-07-08T09:32:40;7.25;;;3.83;;
60851;SDS011;48553;50.766;2.900;2023-07-08T09:35:42;6.55;;;3.78;;
60851;SDS011;48553;50.766;2.900;2023-07-08T09:38:49;7.93;;;4.18;;
60851;SDS011;48553;50.766;2.900;2023-07-08T09:41:51;7.75;;;4.28;;
60851;SDS011;48553;50.766;2.900;2023-07-08T09:44:54;7.80;;;3.95;;
60851;SDS011;48553;50.766;2.900;2023-07-08T09:47:57;6.55;;;4.05;;
60851;SDS011;48553;50.766;2.900;2023-07-08T09:50:58;7.03;;;3.90;;
60851;SDS011;48553;50.766;2.900;2023-07-08T09:53:58;6.80;;;3.70;;
60851;SDS011;48553;50.766;2.900;2023-07-08T09:57:00;6.15;;;3.53;;
60851;SDS011;48553;50.766;2.900;2023-07-08T10:00:08;7.18;;;3.90;;
60851;SDS011;48553;50.766;2.900;2023-07-08T10:03:28;6.55;;;3.65;;
60851;SDS011;48553;50.766;2.900;2023-07-08T10:06:32;7.25;;;4.10;;
60851;SDS011;48553;50.766;2.900;2023-07-08T10:09:34;7.50;;;4.00;;
60851;SDS011;48553;50.766;2.900;2023-07-08T10:12:35;6.82;;;4.00;;
60851;SDS011;48553;50.766;2.900;2023-07-08T10:15:52;7.63;;;4.30;;
60851;SDS011;48553;50.766;2.900;2023-07-08T10:18:56;7.85;;;4.07;;
60851;SDS011;48553;50.766;2.900;2023-07-08T10:25:26;7.35;;;4.10;;
60851;SDS011;48553;50.766;2.900;2023-07-08T10:28:40;7.13;;;4.20;;
60851;SDS011;48553;50.766;2.900;2023-07-08T10:31:53;9.45;;;4.32;;
60851;SDS011;48553;50.766;2.900;2023-07-08T10:48:52;6.03;;;3.67;;
60851;SDS011;48553;50.766;2.900;2023-07-08T11:05:41;8.50;;;4.38;;
60851;SDS011;48553;50.766;2.900;2023-07-08T11:08:56;9.15;;;4.18;;
60851;SDS011;48553;50.766;2.900;2023-07-08T11:21:54;8.73;;;4.30;;
60851;SDS011;48553;50.766;2.900;2023-07-08T11:24:59;7.53;;;4.13;;
60851;SDS011;48553;50.766;2.900;2023-07-08T11:28:04;8.23;;;4.25;;
60851;SDS011;48553;50.766;2.900;2023-07-08T11:31:10;8.38;;;4.05;;
60851;SDS011;48553;50.766;2.900;2023-07-08T11:34:12;7.50;;;3.95;;
60851;SDS011;48553;50.766;2.900;2023-07-08T11:37:15;8.95;;;4.32;;
60851;SDS011;48553;50.766;2.900;2023-07-08T11:40:23;7.95;;;4.30;;
60851;SDS011;48553;50.766;2.900;2023-07-08T11:43:26;7.72;;;4.30;;
60851;SDS011;48553;50.766;2.900;2023-07-08T11:46:33;5.93;;;4.00;;
60851;SDS011;48553;50.766;2.900;2023-07-08T11:49:34;8.38;;;3.97;;
60851;SDS011;48553;50.766;2.900;2023-07-08T11:52:35;7.32;;;4.30;;
60851;SDS011;48553;50.766;2.900;2023-07-08T11:55:46;8.27;;;4.22;;
60851;SDS011;48553;50.766;2.900;2023-07-08T11:59:12;8.13;;;3.80;;
60851;SDS011;48553;50.766;2.900;2023-07-08T12:02:18;7.93;;;4.20;;
60851;SDS011;48553;50.766;2.900;2023-07-08T12:05:28;7.95;;;4.15;;
60851;SDS011;48553;50.766;2.900;2023-07-08T12:08:38;7.28;;;4.10;;
60851;SDS011;48553;50.766;2.900;2023-07-08T12:11:45;7.60;;;4.43;;
60851;SDS011;48553;50.766;2.900;2023-07-08T12:14:58;7.70;;;4.25;;
60851;SDS011;48553;50.766;2.900;2023-07-08T12:21:16;9.70;;;4.10;;
60851;SDS011;48553;50.766;2.900;2023-07-08T12:24:17;7.20;;;4.05;;
60851;SDS011;48553;50.766;2.900;2023-07-08T12:27:26;7.60;;;4.07;;
60851;SDS011;48553;50.766;2.900;2023-07-08T12:30:27;6.80;;;3.90;;
60851;SDS011;48553;50.766;2.900;2023-07-08T12:33:30;9.00;;;4.15;;
60851;SDS011;48553;50.766;2.900;2023-07-08T12:36:33;8.50;;;4.20;;
60851;SDS011;48553;50.766;2.900;2023-07-08T12:39:34;8.10;;;4.57;;
60851;SDS011;48553;50.766;2.900;2023-07-08T12:42:35;8.95;;;3.92;;
60851;SDS011;48553;50.766;2.900;2023-07-08T12:45:35;7.70;;;4.22;;
60851;SDS011;48553;50.766;2.900;2023-07-08T12:48:37;8.88;;;4.40;;
60851;SDS011;48553;50.766;2.900;2023-07-08T12:51:41;6.78;;;4.10;;
60851;SDS011;48553;50.766;2.900;2023-07-08T12:54:43;7.30;;;3.90;;
60851;SDS011;48553;50.766;2.900;2023-07-08T12:57:47;6.72;;;3.90;;
60851;SDS011;48553;50.766;2.900;2023-07-08T13:00:50;8.50;;;4.32;;
60851;SDS011;48553;50.766;2.900;2023-07-08T13:03:51;7.80;;;4.20;;
60851;SDS011;48553;50.766;2.900;2023-07-08T13:06:56;8.73;;;3.97;;
60851;SDS011;48553;50.766;2.900;2023-07-08T13:09:57;7.05;;;4.10;;
60851;SDS011;48553;50.766;2.900;2023-07-08T13:12:58;7.65;;;4.30;;
60851;SDS011;48553;50.766;2.900;2023-07-08T13:16:02;7.95;;;4.38;;
60851;SDS011;48553;50.766;2.900;2023-07-08T13:19:03;8.80;;;3.97;;
60851;SDS011;48553;50.766;2.900;2023-07-08T13:22:04;7.22;;;3.85;;
60851;SDS011;48553;50.766;2.900;2023-07-08T13:25:09;7.63;;;4.30;;
60851;SDS011;48553;50.766;2.900;2023-07-08T13:31:20;8.00;;;4.30;;
60851;SDS011;48553;50.766;2.900;2023-07-08T13:34:23;7.60;;;4.20;;
60851;SDS011;48553;50.766;2.900;2023-07-08T13:37:24;6.65;;;4.18;;
60851;SDS011;48553;50.766;2.900;2023-07-08T13:40:29;9.43;;;4.47;;
60851;SDS011;48553;50.766;2.900;2023-07-08T13:43:31;7.53;;;4.18;;
60851;SDS011;48553;50.766;2.900;2023-07-08T13:49:43;6.15;;;3.92;;
60851;SDS011;48553;50.766;2.900;2023-07-08T13:52:45;7.25;;;4.57;;
60851;SDS011;48553;50.766;2.900;2023-07-08T13:55:45;7.75;;;4.40;;
60851;SDS011;48553;50.766;2.900;2023-07-08T13:58:47;6.80;;;3.95;;
60851;SDS011;48553;50.766;2.900;2023-07-08T14:01:50;7.25;;;4.13;;
60851;SDS011;48553;50.766;2.900;2023-07-08T14:04:53;8.00;;;4.35;;
60851;SDS011;48553;50.766;2.900;2023-07-08T14:07:56;6.15;;;4.10;;
60851;SDS011;48553;50.766;2.900;2023-07-08T14:10:57;6.30;;;4.03;;
60851;SDS011;48553;50.766;2.900;2023-07-08T14:13:57;7.15;;;4.10;;
60851;SDS011;48553;50.766;2.900;2023-07-08T14:16:57;11.00;;;3.70;;
60851;SDS011;48553;50.766;2.900;2023-07-08T14:19:58;9.60;;;3.80;;
60851;SDS011;48553;50.766;2.900;2023-07-08T14:22:58;5.85;;;3.40;;
60851;SDS011;48553;50.766;2.900;2023-07-08T14:25:59;7.40;;;3.47;;
60851;SDS011;48553;50.766;2.900;2023-07-08T14:28:59;7.35;;;3.50;;
60851;SDS011;48553;50.766;2.900;2023-07-08T14:32:00;5.85;;;2.97;;
60851;SDS011;48553;50.766;2.900;2023-07-08T14:35:23;8.00;;;3.05;;
60851;SDS011;48553;50.766;2.900;2023-07-08T14:38:26;6.15;;;2.75;;
60851;SDS011;48553;50.766;2.900;2023-07-08T14:41:26;6.30;;;2.80;;
60851;SDS011;48553;50.766;2.900;2023-07-08T14:44:31;5.00;;;2.85;;
60851;SDS011;48553;50.766;2.900;2023-07-08T14:47:34;6.38;;;2.90;;
60851;SDS011;48553;50.766;2.900;2023-07-08T14:50:35;7.60;;;3.10;;
60851;SDS011;48553;50.766;2.900;2023-07-08T14:53:36;7.30;;;3.13;;
60851;SDS011;48553;50.766;2.900;2023-07-08T14:56:36;4.50;;;2.80;;
60851;SDS011;48553;50.766;2.900;2023-07-08T14:59:38;5.45;;;3.20;;
60851;SDS011;48553;50.766;2.900;2023-07-08T15:02:39;7.72;;;3.28;;
60851;SDS011;48553;50.766;2.900;2023-07-08T15:05:42;7.28;;;2.88;;
60851;SDS011;48553;50.766;2.900;2023-07-08T15:08:42;5.43;;;2.90;;
60851;SDS011;48553;50.766;2.900;2023-07-08T15:11:43;4.88;;;2.83;;
60851;SDS011;48553;50.766;2.900;2023-07-08T15:14:44;5.45;;;2.90;;
60851;SDS011;48553;50.766;2.900;2023-07-08T15:17:45;6.43;;;3.70;;
60851;SDS011;48553;50.766;2.900;2023-07-08T15:20:45;5.22;;;3.13;;
60851;SDS011;48553;50.766;2.900;2023-07-08T15:23:46;5.97;;;3.10;;
60851;SDS011;48553;50.766;2.900;2023-07-08T15:26:47;5.38;;;2.88;;
60851;SDS011;48553;50.766;2.900;2023-07-08T15:29:48;5.72;;;2.78;;
60851;SDS011;48553;50.766;2.900;2023-07-08T15:32:49;5.65;;;2.88;;
60851;SDS011;48553;50.766;2.900;2023-07-08T15:35:51;5.15;;;2.92;;
60851;SDS011;48553;50.766;2.900;2023-07-08T15:38:52;5.60;;;3.10;;
60851;SDS011;48553;50.766;2.900;2023-07-08T15:41:53;4.38;;;2.85;;
60851;SDS011;48553;50.766;2.900;2023-07-08T15:44:53;5.50;;;2.67;;
60851;SDS011;48553;50.766;2.900;2023-07-08T15:47:54;5.53;;;2.75;;
60851;SDS011;48553;50.766;2.900;2023-07-08T15:50:55;6.32;;;3.60;;
60851;SDS011;48553;50.766;2.900;2023-07-08T15:53:55;6.00;;;2.80;;
60851;SDS011;48553;50.766;2.900;2023-07-08T15:56:55;6.05;;;2.70;;
60851;SDS011;48553;50.766;2.900;2023-07-08T15:59:56;5.93;;;2.67;;
60851;SDS011;48553;50.766;2.900;2023-07-08T16:02:58;5.28;;;3.10;;
60851;SDS011;48553;50.766;2.900;2023-07-08T16:06:01;5.35;;;2.78;;
60851;SDS011;48553;50.766;2.900;2023-07-08T16:09:02;5.53;;;2.78;;
60851;SDS011;48553;50.766;2.900;2023-07-08T16:12:03;5.40;;;2.92;;
60851;SDS011;48553;50.766;2.900;2023-07-08T16:15:05;6.47;;;2.90;;
60851;SDS011;48553;50.766;2.900;2023-07-08T16:18:09;5.88;;;2.83;;
60851;SDS011;48553;50.766;2.900;2023-07-08T16:21:12;6.60;;;3.60;;
60851;SDS011;48553;50.766;2.900;2023-07-08T16:24:12;7.00;;;3.15;;
60851;SDS011;48553;50.766;2.900;2023-07-08T16:27:13;7.90;;;3.30;;
60851;SDS011;48553;50.766;2.900;2023-07-08T16:30:14;5.82;;;3.50;;
60851;SDS011;48553;50.766;2.900;2023-07-08T16:33:16;6.50;;;2.70;;
60851;SDS011;48553;50.766;2.900;2023-07-08T16:36:20;6.15;;;3.10;;
60851;SDS011;48553;50.766;2.900;2023-07-08T16:39:22;8.57;;;3.30;;
60851;SDS011;48553;50.766;2.900;2023-07-08T16:42:23;7.10;;;3.33;;
60851;SDS011;48553;50.766;2.900;2023-07-08T16:45:24;6.55;;;3.20;;
60851;SDS011;48553;50.766;2.900;2023-07-08T16:48:25;6.55;;;3.75;;
60851;SDS011;48553;50.766;2.900;2023-07-08T16:51:26;7.70;;;3.33;;
60851;SDS011;48553;50.766;2.900;2023-07-08T16:54:28;5.85;;;3.35;;
60851;SDS011;48553;50.766;2.900;2023-07-08T16:57:29;6.13;;;3.15;;
60851;SDS011;48553;50.766;2.900;2023-07-08T17:00:29;6.20;;;3.38;;
60851;SDS011;48553;50.766;2.900;2023-07-08T17:03:30;6.80;;;3.40;;
60851;SDS011;48553;50.766;2.900;2023-07-08T17:06:32;7.05;;;3.50;;
60851;SDS011;48553;50.766;2.900;2023-07-08T17:09:33;5.50;;;3.28;;
60851;SDS011;48553;50.766;2.900;2023-07-08T17:12:33;5.97;;;3.35;;
60851;SDS011;48553;50.766;2.900;2023-07-08T17:15:33;5.45;;;3.80;;
60851;SDS011;48553;50.766;2.900;2023-07-08T17:18:34;7.18;;;3.70;;
60851;SDS011;48553;50.766;2.900;2023-07-08T17:21:35;7.88;;;3.90;;
60851;SDS011;48553;50.766;2.900;2023-07-08T17:24:35;6.43;;;3.63;;
60851;SDS011;48553;50.766;2.900;2023-07-08T17:27:36;5.95;;;3.63;;
60851;SDS011;48553;50.766;2.900;2023-07-08T17:30:40;7.40;;;3.70;;
60851;SDS011;48553;50.766;2.900;2023-07-08T17:33:42;5.68;;;3.50;;
60851;SDS011;48553;50.766;2.900;2023-07-08T17:36:42;5.90;;;4.22;;
60851;SDS011;48553;50.766;2.900;2023-07-08T17:39:43;6.57;;;3.47;;
60851;SDS011;48553;50.766;2.900;2023-07-08T17:42:43;7.90;;;4.50;;
60851;SDS011;48553;50.766;2.900;2023-07-08T17:45:44;6.60;;;3.90;;
60851;SDS011;48553;50.766;2.900;2023-07-08T17:48:45;5.40;;;3.53;;
60851;SDS011;48553;50.766;2.900;2023-07-08T17:51:47;7.93;;;3.95;;
60851;SDS011;48553;50.766;2.900;2023-07-08T17:54:47;7.20;;;4.22;;
60851;SDS011;48553;50.766;2.900;2023-07-08T17:57:48;7.05;;;4.20;;
60851;SDS011;48553;50.766;2.900;2023-07-08T18:00:50;5.32;;;3.70;;
60851;SDS011;48553;50.766;2.900;2023-07-08T18:03:50;6.38;;;3.67;;
60851;SDS011;48553;50.766;2.900;2023-07-08T18:06:51;8.70;;;4.35;;
60851;SDS011;48553;50.766;2.900;2023-07-08T18:09:53;6.63;;;3.92;;
60851;SDS011;48553;50.766;2.900;2023-07-08T18:12:53;6.85;;;3.97;;
60851;SDS011;48553;50.766;2.900;2023-07-08T18:15:54;6.45;;;3.83;;
60851;SDS011;48553;50.766;2.900;2023-07-08T18:18:54;7.63;;;3.72;;
60851;SDS011;48553;50.766;2.900;2023-07-08T18:21:55;7.43;;;3.80;;
60851;SDS011;48553;50.766;2.900;2023-07-08T18:24:55;6.80;;;3.97;;
60851;SDS011;48553;50.766;2.900;2023-07-08T18:27:56;8.48;;;3.83;;
60851;SDS011;48553;50.766;2.900;2023-07-08T18:30:56;7.72;;;3.90;;
60851;SDS011;48553;50.766;2.900;2023-07-08T18:34:01;8.18;;;4.10;;
60851;SDS011;48553;50.766;2.900;2023-07-08T18:37:06;7.30;;;4.03;;
60851;SDS011;48553;50.766;2.900;2023-07-08T18:40:12;7.05;;;3.90;;
60851;SDS011;48553;50.766;2.900;2023-07-08T18:43:24;6.75;;;3.85;;
60851;SDS011;48553;50.766;2.900;2023-07-08T18:46:26;10.23;;;4.22;;
60851;SDS011;48553;50.766;2.900;2023-07-08T18:49:26;7.13;;;4.10;;
60851;SDS011;48553;50.766;2.900;2023-07-08T18:52:29;8.23;;;4.15;;
60851;SDS011;48553;50.766;2.900;2023-07-08T18:55:29;8.55;;;4.30;;
60851;SDS011;48553;50.766;2.900;2023-07-08T18:58:30;7.82;;;4.30;;
60851;SDS011;48553;50.766;2.900;2023-07-08T19:01:30;8.05;;;4.30;;
60851;SDS011;48553;50.766;2.900;2023-07-08T19:04:30;8.65;;;4.30;;
60851;SDS011;48553;50.766;2.900;2023-07-08T19:07:31;7.68;;;4.40;;
60851;SDS011;48553;50.766;2.900;2023-07-08T19:10:31;7.53;;;4.07;;
60851;SDS011;48553;50.766;2.900;2023-07-08T19:13:32;7.47;;;4.65;;
60851;SDS011;48553;50.766;2.900;2023-07-08T19:16:39;7.32;;;4.63;;
60851;SDS011;48553;50.766;2.900;2023-07-08T19:19:39;7.25;;;4.45;;
60851;SDS011;48553;50.766;2.900;2023-07-08T19:22:40;8.32;;;4.38;;
60851;SDS011;48553;50.766;2.900;2023-07-08T19:25:41;8.38;;;4.57;;
60851;SDS011;48553;50.766;2.900;2023-07-08T19:28:45;9.20;;;4.63;;
60851;SDS011;48553;50.766;2.900;2023-07-08T19:34:47;7.45;;;4.43;;
60851;SDS011;48553;50.766;2.900;2023-07-08T19:37:49;7.15;;;4.47;;